Time;durP1;ratioP1;P1;durP2;ratioP2;P2;SDS_P1;SDS_P2;PMS_P1;PMS_P2;Temp;Humidity;BMP_temperature;BMP_pressure;BME280_temperature;BME280_humidity;BME280_pressure;Samples;Min_cycle;Max_cycle;Signal;HPM_P1;HPM_P2
2023/05/29 00:00:40;;;;;;;7.67;4.00;;;13.70;99.90;;;;;;5073660;28;20442;-61
2023/05/29 00:03:09;;;;;;;7.20;3.00;;;13.60;99.90;;;;;;5074477;28;20462;-61
2023/05/29 00:05:36;;;;;;;8.40;3.00;;;13.60;99.90;;;;;;5075027;28;20467;-62
2023/05/29 00:08:02;;;;;;;5.17;3.67;;;13.50;99.90;;;;;;5074955;28;20434;-59
2023/05/29 00:10:30;;;;;;;6.60;3.30;;;13.50;99.90;;;;;;5074700;28;20809;-60
2023/05/29 00:12:57;;;;;;;5.70;2.93;;;13.50;99.90;;;;;;5073035;28;20497;-59
2023/05/29 00:15:24;;;;;;;7.43;3.30;;;13.40;99.90;;;;;;5072929;28;20465;-61
2023/05/29 00:17:51;;;;;;;9.10;4.30;;;13.40;99.90;;;;;;5072608;28;20848;-60
2023/05/29 00:20:19;;;;;;;6.53;3.47;;;13.30;99.90;;;;;;5073286;28;20471;-60
2023/05/29 00:22:46;;;;;;;8.43;3.60;;;13.30;99.90;;;;;;5072826;28;20493;-61
2023/05/29 00:25:13;;;;;;;8.90;3.30;;;13.20;99.90;;;;;;5072723;28;20490;-60
2023/05/29 00:27:40;;;;;;;7.87;3.43;;;13.20;99.90;;;;;;5074918;28;20929;-60
2023/05/29 00:30:08;;;;;;;6.37;3.03;;;13.10;99.90;;;;;;5076819;28;20937;-60
2023/05/29 00:32:35;;;;;;;6.27;3.40;;;13.10;99.90;;;;;;5076758;28;20822;-60
2023/05/29 00:35:02;;;;;;;5.40;3.47;;;13.00;99.90;;;;;;5077993;28;20835;-61
2023/05/29 00:37:30;;;;;;;4.97;3.40;;;13.00;99.90;;;;;;5077474;28;20479;-61
2023/05/29 00:39:57;;;;;;;6.63;3.57;;;12.90;99.90;;;;;;5077600;28;20445;-60
2023/05/29 00:42:24;;;;;;;9.30;3.50;;;12.80;99.90;;;;;;5076977;28;20841;-61
2023/05/29 00:44:51;;;;;;;10.67;4.20;;;12.80;99.90;;;;;;5077565;28;20447;-61
2023/05/29 00:47:18;;;;;;;9.23;4.20;;;12.70;99.90;;;;;;5077425;28;20435;-61
2023/05/29 00:49:45;;;;;;;6.37;3.30;;;12.70;99.90;;;;;;5077618;28;20451;-60
2023/05/29 00:52:13;;;;;;;6.97;2.80;;;12.60;99.90;;;;;;5076745;28;20453;-60
2023/05/29 00:54:46;;;;;;;6.07;3.00;;;12.60;99.90;;;;;;5076681;28;20450;-61
2023/05/29 00:57:15;;;;;;;6.23;3.07;;;12.50;99.90;;;;;;5077054;28;20467;-61
2023/05/29 00:59:43;;;;;;;10.63;3.30;;;12.50;99.90;;;;;;5076550;28;20512;-61
2023/05/29 01:02:10;;;;;;;6.27;3.77;;;12.40;99.90;;;;;;5076812;28;20445;-60
2023/05/29 01:04:37;;;;;;;6.30;3.43;;;12.40;99.90;;;;;;5076787;28;20443;-61
2023/05/29 01:07:04;;;;;;;4.80;3.07;;;12.30;99.90;;;;;;5076615;28;20438;-60
2023/05/29 01:09:34;;;;;;;4.80;2.87;;;12.20;99.90;;;;;;5077242;28;20443;-61
2023/05/29 01:12:17;;;;;;;4.83;2.80;;;12.20;99.90;;;;;;5076490;28;20443;-61
2023/05/29 01:14:57;;;;;;;8.63;3.23;;;12.20;99.90;;;;;;5076368;28;20443;-61
2023/05/29 01:17:30;;;;;;;6.60;2.80;;;12.10;99.90;;;;;;5076184;28;20462;-60
2023/05/29 01:20:09;;;;;;;9.63;3.40;;;12.10;99.90;;;;;;5075737;28;20427;-60
2023/05/29 01:22:48;;;;;;;9.80;3.60;;;12.10;99.90;;;;;;5076752;28;20538;-60
2023/05/29 01:25:21;;;;;;;10.80;3.83;;;12.00;99.90;;;;;;5076018;28;20473;-61
2023/05/29 01:27:51;;;;;;;7.83;2.73;;;12.00;99.90;;;;;;5076183;28;20792;-61
2023/05/29 01:30:19;;;;;;;8.97;3.60;;;12.00;99.90;;;;;;5075680;28;20427;-60
2023/05/29 01:32:46;;;;;;;7.53;3.10;;;11.90;99.90;;;;;;5076064;28;20439;-60
2023/05/29 01:35:13;;;;;;;6.40;2.90;;;11.90;99.90;;;;;;5075826;28;20467;-60
2023/05/29 01:37:40;;;;;;;7.60;3.57;;;11.90;99.90;;;;;;5075297;28;20485;-61
2023/05/29 01:40:09;;;;;;;9.50;3.40;;;11.80;99.90;;;;;;5074834;28;20455;-60
2023/05/29 01:42:36;;;;;;;8.03;3.13;;;11.80;99.90;;;;;;5075232;28;20815;-61
2023/05/29 01:45:06;;;;;;;8.33;4.03;;;11.80;99.90;;;;;;5075478;28;20467;-61
2023/05/29 01:47:33;;;;;;;9.60;4.00;;;11.80;99.90;;;;;;5076049;28;20486;-60
2023/05/29 01:50:01;;;;;;;7.07;3.40;;;11.70;99.90;;;;;;5075295;28;20496;-60
2023/05/29 01:52:28;;;;;;;6.33;2.87;;;11.70;99.90;;;;;;5075539;28;20953;-60
2023/05/29 01:54:54;;;;;;;8.23;2.50;;;11.60;99.90;;;;;;5075505;28;20453;-61
2023/05/29 01:57:22;;;;;;;9.00;3.57;;;11.60;99.90;;;;;;5076055;28;20477;-59
2023/05/29 01:59:49;;;;;;;3.50;2.93;;;11.60;99.90;;;;;;5075613;28;20447;-60
2023/05/29 02:02:17;;;;;;;9.47;2.93;;;11.60;99.90;;;;;;5075503;28;20447;-60
2023/05/29 02:04:44;;;;;;;6.60;3.23;;;11.50;99.90;;;;;;5075431;28;20948;-61
2023/05/29 02:07:11;;;;;;;3.13;2.57;;;11.40;99.90;;;;;;5075718;28;20574;-60
2023/05/29 02:09:39;;;;;;;9.17;2.80;;;11.40;99.90;;;;;;5075230;28;20941;-60
2023/05/29 02:12:07;;;;;;;3.43;2.50;;;11.40;99.90;;;;;;5075654;28;20864;-60
2023/05/29 02:14:33;;;;;;;7.27;3.23;;;11.40;99.90;;;;;;5075631;28;20439;-59
2023/05/29 02:17:01;;;;;;;4.83;2.60;;;11.30;99.90;;;;;;5076157;28;20502;-60
2023/05/29 02:19:29;;;;;;;9.60;3.73;;;11.30;99.90;;;;;;5075471;28;20447;-61
2023/05/29 02:21:56;;;;;;;7.90;3.70;;;11.20;99.90;;;;;;5075067;28;20468;-59
2023/05/29 02:24:23;;;;;;;7.10;3.30;;;11.20;99.90;;;;;;5075123;28;20439;-60
2023/05/29 02:26:50;;;;;;;11.00;3.30;;;11.20;99.90;;;;;;5074589;28;20447;-59
2023/05/29 02:29:17;;;;;;;7.80;3.13;;;11.20;99.90;;;;;;5074706;28;20447;-61
2023/05/29 02:31:44;;;;;;;5.90;2.90;;;11.10;99.90;;;;;;5074267;28;20465;-59
2023/05/29 02:34:11;;;;;;;8.13;2.67;;;11.10;99.90;;;;;;5074315;28;20447;-60
2023/05/29 02:36:39;;;;;;;7.27;3.37;;;11.00;99.90;;;;;;5074269;28;20979;-60
2023/05/29 02:39:06;;;;;;;5.00;2.47;;;11.00;99.90;;;;;;5074390;28;20447;-60
2023/05/29 02:41:33;;;;;;;7.63;3.50;;;11.00;99.90;;;;;;5074276;28;20453;-59
2023/05/29 02:44:00;;;;;;;4.33;3.20;;;10.90;99.90;;;;;;5075587;28;20949;-60
2023/05/29 02:46:27;;;;;;;7.60;3.23;;;10.90;99.90;;;;;;5075100;28;20467;-60
2023/05/29 02:48:53;;;;;;;6.40;2.20;;;10.90;99.90;;;;;;5076019;28;20447;-61
2023/05/29 02:51:20;;;;;;;6.73;3.33;;;10.80;99.90;;;;;;5075098;28;20439;-59
2023/05/29 02:53:49;;;;;;;5.80;2.70;;;10.80;99.90;;;;;;5075648;28;20940;-59
2023/05/29 02:56:16;;;;;;;8.63;3.13;;;10.70;99.90;;;;;;5074310;28;20471;-59
2023/05/29 02:58:43;;;;;;;11.60;3.30;;;10.70;99.90;;;;;;5074368;28;20482;-60
2023/05/29 03:01:10;;;;;;;7.53;3.10;;;10.70;99.90;;;;;;5074306;28;20474;-59
2023/05/29 03:03:37;;;;;;;9.97;3.33;;;10.70;99.90;;;;;;5073773;28;20443;-60
2023/05/29 03:06:04;;;;;;;7.47;3.20;;;10.60;99.90;;;;;;5073726;28;20467;-60
2023/05/29 03:08:30;;;;;;;6.70;2.70;;;10.60;99.90;;;;;;5073707;28;20439;-60
2023/05/29 03:10:59;;;;;;;4.13;2.90;;;10.60;99.90;;;;;;5074054;28;20445;-60
2023/05/29 03:13:25;;;;;;;7.90;3.03;;;10.60;99.90;;;;;;5073857;28;20454;-61
2023/05/29 03:15:56;;;;;;;6.10;3.20;;;10.60;99.90;;;;;;5074293;28;20467;-61
2023/05/29 03:18:23;;;;;;;7.80;3.23;;;10.60;99.90;;;;;;5073916;28;20459;-60
2023/05/29 03:20:50;;;;;;;7.20;3.03;;;10.60;99.90;;;;;;5072640;28;20419;-60
2023/05/29 03:23:17;;;;;;;4.97;2.50;;;10.60;99.90;;;;;;5073705;28;20291;-60
2023/05/29 03:25:43;;;;;;;6.27;2.60;;;10.60;99.90;;;;;;5083637;22;20490;-61
2023/05/29 03:28:11;;;;;;;4.97;2.57;;;10.60;99.90;;;;;;5053293;28;20444;-62
2023/05/29 03:30:38;;;;;;;5.80;2.90;;;10.60;99.90;;;;;;5053225;28;20436;-61
2023/05/29 03:33:05;;;;;;;7.70;3.40;;;10.60;99.90;;;;;;5053246;28;20539;-61
2023/05/29 03:35:32;;;;;;;11.70;3.47;;;10.60;99.90;;;;;;5053094;28;20470;-61
2023/05/29 03:37:59;;;;;;;8.37;3.50;;;10.60;99.90;;;;;;5052778;28;20483;-61
2023/05/29 03:40:26;;;;;;;9.17;3.13;;;10.60;99.90;;;;;;5053101;28;20797;-61
2023/05/29 03:42:52;;;;;;;7.00;2.80;;;10.70;99.90;;;;;;5053066;28;20447;-62
2023/05/29 03:45:20;;;;;;;8.23;2.87;;;10.70;99.90;;;;;;5052994;28;20467;-61
2023/05/29 03:47:47;;;;;;;7.20;3.13;;;10.80;99.90;;;;;;5053017;28;20447;-61
2023/05/29 03:50:15;;;;;;;8.40;3.27;;;10.80;99.90;;;;;;5052941;28;20436;-61
2023/05/29 03:52:42;;;;;;;7.30;2.93;;;10.90;99.90;;;;;;5053217;28;20475;-63
2023/05/29 03:55:12;;;;;;;8.97;3.57;;;11.00;99.90;;;;;;5053776;28;20444;-63
2023/05/29 03:57:40;;;;;;;7.90;3.07;;;11.00;99.90;;;;;;5052821;28;20506;-62
2023/05/29 04:00:09;;;;;;;10.13;3.20;;;11.10;99.90;;;;;;5052588;28;20505;-62
2023/05/29 04:02:38;;;;;;;8.23;3.03;;;11.10;99.90;;;;;;5052542;28;20825;-62
2023/05/29 04:05:06;;;;;;;6.80;3.13;;;11.10;99.90;;;;;;5052768;28;20452;-63
2023/05/29 04:07:33;;;;;;;8.20;2.73;;;11.10;99.90;;;;;;5052693;28;20444;-61
2023/05/29 04:11:46;;;;;;;6.30;2.83;;;11.20;99.90;;;;;;5090859;28;20953;-60
2023/05/29 04:14:12;;;;;;;5.27;3.07;;;11.30;99.90;;;;;;5090326;28;20442;-61
2023/05/29 04:16:39;;;;;;;10.20;4.03;;;11.40;99.90;;;;;;5089886;28;20979;-61
2023/05/29 04:19:06;;;;;;;13.90;3.70;;;11.40;99.90;;;;;;5090036;28;20470;-61
2023/05/29 04:21:34;;;;;;;7.03;2.90;;;11.50;99.90;;;;;;5090149;28;20507;-61
2023/05/29 04:24:01;;;;;;;9.37;2.80;;;11.50;99.90;;;;;;5090191;28;20450;-61
2023/05/29 04:26:28;;;;;;;9.87;3.23;;;11.60;99.90;;;;;;5090255;28;20469;-61
2023/05/29 04:28:57;;;;;;;12.20;2.57;;;11.60;99.90;;;;;;5090276;28;20929;-61
2023/05/29 04:31:26;;;;;;;8.03;2.73;;;11.60;99.90;;;;;;5090244;28;20482;-61
2023/05/29 04:33:55;;;;;;;9.93;3.37;;;11.70;99.90;;;;;;5090592;28;20438;-61
2023/05/29 04:36:25;;;;;;;11.43;3.43;;;11.70;99.90;;;;;;5090401;28;20561;-61
2023/05/29 04:38:52;;;;;;;11.33;3.23;;;11.70;99.90;;;;;;5090018;28;20450;-62
2023/05/29 04:41:19;;;;;;;7.87;2.70;;;11.70;99.90;;;;;;5089668;28;20450;-62
2023/05/29 04:43:46;;;;;;;9.30;3.20;;;11.80;99.90;;;;;;5089670;28;20462;-61
2023/05/29 04:46:15;;;;;;;7.60;3.10;;;11.80;99.90;;;;;;5089471;28;20878;-61
2023/05/29 04:48:42;;;;;;;11.73;3.37;;;11.90;99.90;;;;;;5089930;28;20492;-62
2023/05/29 04:51:10;;;;;;;7.07;3.27;;;12.00;99.90;;;;;;5089677;28;20556;-61
2023/05/29 04:53:37;;;;;;;10.00;2.73;;;12.10;99.90;;;;;;5089380;28;20929;-61
2023/05/29 04:56:04;;;;;;;8.80;3.10;;;12.20;99.90;;;;;;5089721;28;20561;-61
2023/05/29 04:58:31;;;;;;;5.10;2.27;;;12.30;99.90;;;;;;5089819;28;20446;-62
2023/05/29 05:00:59;;;;;;;6.10;2.63;;;12.50;99.90;;;;;;5089316;28;20800;-62
2023/05/29 05:03:27;;;;;;;9.03;2.60;;;12.60;99.90;;;;;;5090557;28;20434;-62
2023/05/29 05:05:54;;;;;;;7.77;3.00;;;12.80;99.90;;;;;;5091599;28;20454;-61
2023/05/29 05:08:20;;;;;;;7.93;3.13;;;13.10;99.90;;;;;;5092670;28;20537;-61
2023/05/29 05:10:47;;;;;;;7.00;2.97;;;13.40;98.90;;;;;;5092242;28;20565;-60
2023/05/29 05:13:14;;;;;;;10.43;2.80;;;13.60;98.10;;;;;;5091504;28;20450;-61
2023/05/29 05:15:41;;;;;;;9.60;2.70;;;13.80;97.30;;;;;;5092783;28;20501;-61
2023/05/29 05:18:08;;;;;;;12.13;3.47;;;14.10;96.40;;;;;;5089480;28;20442;-61
2023/05/29 05:20:36;;;;;;;7.13;3.00;;;14.40;95.10;;;;;;5089342;28;20445;-61
2023/05/29 05:23:03;;;;;;;5.23;2.37;;;14.60;93.50;;;;;;5076219;28;20454;-61
2023/05/29 05:25:30;;;;;;;10.07;3.87;;;14.70;91.80;;;;;;5075671;28;20467;-61
2023/05/29 05:27:57;;;;;;;7.77;2.73;;;14.80;90.70;;;;;;5075551;28;20447;-61
2023/05/29 05:30:23;;;;;;;5.27;2.07;;;14.70;90.20;;;;;;5076061;28;20474;-61
2023/05/29 05:32:50;;;;;;;9.13;3.10;;;14.80;89.80;;;;;;5075814;28;20439;-61
2023/05/29 05:35:17;;;;;;;8.20;2.43;;;15.00;88.30;;;;;;5075364;28;20443;-61
2023/05/29 05:37:45;;;;;;;9.00;2.50;;;15.20;86.80;;;;;;5075184;28;20959;-61
2023/05/29 05:40:12;;;;;;;6.27;2.80;;;15.40;83.90;;;;;;5075349;28;20450;-60
2023/05/29 05:42:39;;;;;;;8.60;3.40;;;15.50;80.00;;;;;;5075793;28;20442;-61
2023/05/29 05:45:07;;;;;;;7.50;2.93;;;15.30;79.10;;;;;;5075374;28;20470;-62
2023/05/29 05:47:34;;;;;;;7.33;2.60;;;15.10;78.90;;;;;;5075221;28;20459;-61
2023/05/29 05:50:00;;;;;;;7.23;2.10;;;14.80;78.60;;;;;;5075333;28;20443;-61
2023/05/29 05:52:30;;;;;;;7.97;2.40;;;14.60;80.00;;;;;;5075509;28;20522;-61
2023/05/29 05:54:59;;;;;;;6.93;2.63;;;14.50;80.30;;;;;;5075056;28;20443;-61
2023/05/29 05:57:27;;;;;;;6.40;2.50;;;14.30;80.80;;;;;;5074969;28;20447;-61
2023/05/29 05:59:53;;;;;;;7.30;2.37;;;14.20;81.40;;;;;;5075296;28;20473;-61
2023/05/29 06:02:21;;;;;;;5.30;2.10;;;14.00;82.50;;;;;;5075354;28;20446;-61
2023/05/29 06:04:48;;;;;;;10.83;3.60;;;13.90;83.70;;;;;;5074990;28;20477;-61
2023/05/29 06:07:15;;;;;;;4.73;2.20;;;13.90;84.40;;;;;;5074982;28;20459;-61
2023/05/29 06:09:42;;;;;;;9.60;2.73;;;14.00;84.80;;;;;;5074587;28;20451;-61
2023/05/29 06:12:11;;;;;;;10.67;3.10;;;14.10;84.10;;;;;;5075140;28;20479;-61
2023/05/29 06:14:37;;;;;;;5.63;2.50;;;14.20;83.70;;;;;;5074780;28;20443;-61
2023/05/29 06:17:04;;;;;;;7.90;2.27;;;14.20;83.10;;;;;;5074695;28;20470;-61
2023/05/29 06:19:31;;;;;;;6.43;3.10;;;14.10;82.70;;;;;;5074812;28;20447;-61
2023/05/29 06:21:58;;;;;;;6.47;2.87;;;14.10;83.00;;;;;;5075457;28;20443;-61
2023/05/29 06:24:25;;;;;;;12.07;2.97;;;14.10;83.50;;;;;;5074496;28;20439;-62
2023/05/29 06:26:51;;;;;;;8.70;2.47;;;14.20;83.10;;;;;;5074381;28;20580;-62
2023/05/29 06:29:20;;;;;;;9.17;2.93;;;14.30;82.30;;;;;;5074125;28;20937;-62
2023/05/29 06:31:47;;;;;;;11.87;3.03;;;14.40;81.10;;;;;;5074135;28;21008;-61
2023/05/29 06:34:13;;;;;;;8.80;3.10;;;14.40;80.80;;;;;;5073315;28;20455;-61
2023/05/29 06:36:41;;;;;;;10.70;2.73;;;14.50;80.60;;;;;;5074123;28;20471;-61
2023/05/29 06:39:08;;;;;;;8.37;2.77;;;14.70;79.60;;;;;;5074331;28;20547;-61
2023/05/29 06:41:35;;;;;;;7.57;2.43;;;14.80;77.70;;;;;;5074268;28;20439;-62
2023/05/29 06:44:02;;;;;;;7.70;3.23;;;14.80;76.80;;;;;;5074528;28;20939;-62
2023/05/29 06:46:30;;;;;;;7.17;3.07;;;14.80;76.60;;;;;;5074210;28;20474;-61
2023/05/29 06:48:57;;;;;;;6.80;2.33;;;14.80;76.70;;;;;;5073981;28;20952;-61
2023/05/29 06:51:24;;;;;;;5.87;2.77;;;14.80;76.60;;;;;;5074291;28;20485;-62
2023/05/29 06:53:50;;;;;;;10.33;2.60;;;14.80;76.40;;;;;;5074186;28;20534;-61
2023/05/29 06:56:17;;;;;;;9.18;2.58;;;14.90;76.30;;;;;;5072930;28;20506;-60
2023/05/29 06:58:45;;;;;;;6.60;2.60;;;15.00;75.60;;;;;;5073758;28;20207;-62
2023/05/29 07:01:12;;;;;;;7.07;2.60;;;15.10;75.10;;;;;;5073684;28;20447;-61
2023/05/29 07:03:40;;;;;;;7.60;2.67;;;15.20;74.20;;;;;;5074008;28;20526;-61
2023/05/29 07:06:07;;;;;;;7.37;2.40;;;15.30;72.90;;;;;;5073551;28;20471;-61
2023/05/29 07:08:34;;;;;;;7.37;2.83;;;15.20;72.80;;;;;;5073323;28;20941;-62
2023/05/29 07:11:02;;;;;;;6.67;2.40;;;15.10;73.30;;;;;;5073208;28;20559;-62
2023/05/29 07:13:29;;;;;;;9.93;2.77;;;15.00;73.50;;;;;;5073978;28;20814;-61
2023/05/29 07:15:56;;;;;;;11.60;3.20;;;15.00;73.90;;;;;;5073584;28;20470;-61
2023/05/29 07:18:22;;;;;;;7.73;2.60;;;15.10;73.70;;;;;;5073466;28;20451;-62
2023/05/29 07:20:50;;;;;;;4.83;2.20;;;15.10;73.20;;;;;;5073635;28;20449;-61
2023/05/29 07:23:17;;;;;;;9.07;2.87;;;15.20;73.70;;;;;;5073232;28;20455;-61
2023/05/29 07:25:44;;;;;;;8.03;2.47;;;15.40;73.70;;;;;;5073169;28;20467;-64
2023/05/29 07:28:11;;;;;;;7.33;2.73;;;15.70;72.40;;;;;;5073981;28;20504;-62
2023/05/29 07:30:38;;;;;;;6.83;2.30;;;15.90;71.20;;;;;;5073605;28;20455;-62
2023/05/29 07:33:06;;;;;;;7.70;2.70;;;16.10;70.00;;;;;;5073610;28;20479;-63
2023/05/29 07:35:33;;;;;;;6.30;2.63;;;16.30;68.40;;;;;;5073360;28;20471;-63
2023/05/29 07:38:01;;;;;;;11.10;3.27;;;16.40;67.10;;;;;;5073492;28;20461;-60
2023/05/29 07:40:28;;;;;;;9.90;2.70;;;16.50;66.30;;;;;;5073545;28;20447;-61
2023/05/29 07:42:55;;;;;;;8.80;2.53;;;16.30;65.50;;;;;;5073490;28;20448;-61
2023/05/29 07:45:22;;;;;;;8.90;3.00;;;16.00;65.80;;;;;;5072985;28;20858;-61
2023/05/29 07:47:48;;;;;;;9.70;2.90;;;15.70;66.40;;;;;;5073597;28;20445;-60
2023/05/29 07:50:15;;;;;;;9.57;3.03;;;15.50;67.60;;;;;;5073387;28;20542;-61
2023/05/29 07:52:43;;;;;;;6.90;3.17;;;15.40;68.40;;;;;;5074021;28;20513;-61
2023/05/29 07:55:11;;;;;;;7.60;2.70;;;15.60;68.50;;;;;;5073187;28;20447;-60
2023/05/29 07:57:39;;;;;;;8.13;2.47;;;15.70;67.80;;;;;;5072989;28;20967;-61
2023/05/29 08:00:07;;;;;;;5.67;2.07;;;15.90;66.50;;;;;;5073380;28;20443;-61
2023/05/29 08:02:34;;;;;;;10.07;2.90;;;16.00;65.60;;;;;;5073158;28;20949;-61
2023/05/29 08:05:01;;;;;;;11.57;3.07;;;16.00;65.30;;;;;;5073238;28;20454;-62
2023/05/29 08:07:28;;;;;;;6.33;2.10;;;16.20;64.60;;;;;;5073107;28;20439;-61
2023/05/29 08:09:55;;;;;;;7.13;2.40;;;16.30;64.10;;;;;;5072619;28;20961;-61
2023/05/29 08:12:23;;;;;;;14.53;3.20;;;16.40;63.40;;;;;;5072790;28;20503;-60
2023/05/29 08:14:50;;;;;;;8.63;2.33;;;16.50;63.50;;;;;;5073246;28;20459;-62
2023/05/29 08:17:17;;;;;;;8.80;2.63;;;16.60;62.20;;;;;;5072737;28;20558;-61
2023/05/29 08:19:44;;;;;;;10.63;2.40;;;16.60;61.50;;;;;;5072590;28;20952;-61
2023/05/29 08:22:15;;;;;;;11.33;2.57;;;16.60;61.00;;;;;;5073226;28;20435;-62
2023/05/29 08:24:41;;;;;;;7.23;2.37;;;16.60;61.10;;;;;;5073308;28;20434;-62
2023/05/29 08:27:08;;;;;;;6.07;3.03;;;16.60;60.90;;;;;;5073733;28;20463;-62
2023/05/29 08:29:38;;;;;;;11.70;2.67;;;16.70;60.40;;;;;;5073656;28;20442;-63
2023/05/29 08:32:05;;;;;;;5.63;2.23;;;16.70;60.00;;;;;;5073125;28;20924;-62
2023/05/29 08:34:32;;;;;;;9.80;2.90;;;16.80;60.00;;;;;;5073665;28;20948;-63
2023/05/29 08:36:59;;;;;;;10.30;3.47;;;16.90;60.00;;;;;;5073731;28;20467;-63
2023/05/29 08:39:26;;;;;;;7.53;2.47;;;17.10;59.30;;;;;;5073688;28;20458;-61
2023/05/29 08:42:00;;;;;;;12.27;3.20;;;17.30;58.20;;;;;;5072782;28;20526;-62
2023/05/29 08:44:31;;;;;;;5.60;2.13;;;17.40;57.80;;;;;;5072800;28;20458;-62
2023/05/29 08:47:02;;;;;;;6.33;2.40;;;17.40;57.40;;;;;;5072940;28;20463;-62
2023/05/29 08:49:35;;;;;;;4.53;2.30;;;17.40;57.10;;;;;;5072798;28;20428;-62
2023/05/29 08:52:10;;;;;;;4.37;2.13;;;17.40;56.60;;;;;;5072624;28;20470;-61
2023/05/29 08:54:37;;;;;;;9.90;2.90;;;17.50;56.30;;;;;;5072564;28;20423;-62
2023/05/29 08:57:05;;;;;;;3.60;1.80;;;17.60;55.90;;;;;;5073918;28;20458;-62
2023/05/29 08:59:33;;;;;;;5.50;2.27;;;17.80;55.10;;;;;;5076071;28;20982;-62
2023/05/29 09:02:01;;;;;;;5.43;2.17;;;17.80;53.60;;;;;;5076054;28;20522;-64
2023/05/29 09:04:30;;;;;;;4.07;2.37;;;17.80;53.00;;;;;;5075976;28;20809;-62
2023/05/29 09:06:58;;;;;;;6.60;2.10;;;17.80;53.00;;;;;;5074807;28;20459;-63
2023/05/29 09:09:26;;;;;;;6.65;2.70;;;17.80;53.10;;;;;;5074654;28;20416;-63
2023/05/29 09:11:53;;;;;;;5.90;2.63;;;17.90;53.00;;;;;;5075625;28;20247;-62
2023/05/29 09:14:34;;;;;;;5.20;2.33;;;18.00;52.70;;;;;;5075912;28;20449;-62
2023/05/29 09:17:02;;;;;;;4.50;2.37;;;18.10;52.70;;;;;;5075605;28;20990;-62
2023/05/29 09:19:29;;;;;;;3.00;1.93;;;18.20;51.80;;;;;;5075911;28;20504;-61
2023/05/29 09:22:02;;;;;;;9.00;2.70;;;18.20;51.50;;;;;;5076033;28;20444;-61
2023/05/29 09:24:30;;;;;;;5.00;2.30;;;18.20;51.00;;;;;;5075757;28;20795;-62
2023/05/29 09:26:59;;;;;;;7.23;2.20;;;18.20;50.80;;;;;;5088529;22;20594;-61
2023/05/29 09:29:26;;;;;;;9.53;2.43;;;18.20;50.60;;;;;;5057078;28;20515;-59
2023/05/29 09:31:53;;;;;;;8.20;2.30;;;18.20;50.70;;;;;;5057043;28;20533;-60
2023/05/29 09:34:26;;;;;;;4.40;1.93;;;18.30;50.60;;;;;;5056877;28;20452;-61
2023/05/29 09:36:53;;;;;;;8.30;2.77;;;18.50;50.40;;;;;;5057387;28;20460;-61
2023/05/29 09:39:20;;;;;;;7.63;3.80;;;18.70;50.10;;;;;;5056985;28;20437;-60
2023/05/29 09:41:48;;;;;;;7.67;2.23;;;19.00;49.90;;;;;;5058239;28;20447;-60
2023/05/29 09:44:15;;;;;;;8.83;3.17;;;19.00;49.50;;;;;;5057257;28;20539;-59
2023/05/29 09:46:42;;;;;;;6.90;2.47;;;18.90;49.10;;;;;;5060367;28;20460;-59
2023/05/29 09:49:13;;;;;;;9.37;2.60;;;18.70;49.00;;;;;;5062340;28;20456;-61
2023/05/29 09:51:47;;;;;;;9.97;2.00;;;18.50;49.00;;;;;;5062107;28;20991;-59
2023/05/29 09:54:16;;;;;;;7.03;2.30;;;18.30;49.20;;;;;;5059405;28;20436;-60
2023/05/29 09:56:44;;;;;;;4.03;2.20;;;18.30;49.20;;;;;;5060637;28;20472;-61
2023/05/29 09:59:12;;;;;;;8.07;2.73;;;18.30;49.20;;;;;;5058678;28;20444;-60
2023/05/29 10:01:42;;;;;;;9.43;2.60;;;18.40;49.20;;;;;;5059063;28;20443;-60
2023/05/29 10:04:10;;;;;;;4.83;2.17;;;18.60;49.10;;;;;;5059111;28;20996;-60
2023/05/29 10:06:38;;;;;;;4.33;2.10;;;18.80;48.30;;;;;;5059977;28;20468;-61
2023/05/29 10:09:10;;;;;;;6.03;2.73;;;18.80;48.10;;;;;;5059050;28;20448;-60
2023/05/29 10:11:38;;;;;;;5.10;2.07;;;18.90;47.90;;;;;;5058810;28;20461;-60
2023/05/29 10:14:07;;;;;;;5.60;2.50;;;18.90;47.90;;;;;;5057649;28;20825;-61
2023/05/29 10:16:40;;;;;;;4.87;2.27;;;18.90;47.70;;;;;;5056641;28;20472;-60
2023/05/29 10:19:12;;;;;;;8.13;2.60;;;19.00;47.90;;;;;;5057073;28;20456;-59
2023/05/29 10:21:41;;;;;;;4.60;1.93;;;19.20;47.60;;;;;;5056725;28;20501;-61
2023/05/29 10:24:11;;;;;;;3.93;1.70;;;19.10;47.30;;;;;;5057061;28;20450;-60
2023/05/29 10:26:41;;;;;;;7.97;2.40;;;19.20;47.50;;;;;;5055127;28;21018;-60
2023/05/29 10:29:14;;;;;;;7.87;3.00;;;19.10;47.30;;;;;;5056027;28;20965;-60
2023/05/29 10:32:06;;;;;;;8.30;2.23;;;19.20;47.40;;;;;;5056369;28;20548;-60
2023/05/29 10:34:42;;;;;;;5.50;2.43;;;19.20;47.20;;;;;;5055632;28;20432;-61
2023/05/29 10:37:21;;;;;;;7.17;2.27;;;19.30;47.30;;;;;;5055531;28;20467;-60
2023/05/29 10:39:49;;;;;;;4.00;1.93;;;19.40;47.20;;;;;;5055763;28;20829;-60
2023/05/29 10:42:41;;;;;;;4.77;2.10;;;19.50;47.00;;;;;;5055851;28;20535;-61
2023/05/29 10:45:08;;;;;;;9.00;2.40;;;19.60;47.00;;;;;;5055868;28;20474;-60
2023/05/29 10:47:35;;;;;;;4.87;2.53;;;19.60;46.90;;;;;;5055705;28;20468;-61
2023/05/29 10:50:03;;;;;;;8.70;2.50;;;19.50;46.80;;;;;;5055175;28;20437;-60
2023/05/29 10:52:32;;;;;;;7.20;2.20;;;19.60;46.80;;;;;;5055692;28;20487;-62
2023/05/29 10:55:03;;;;;;;6.57;2.40;;;19.70;46.50;;;;;;5055286;28;20443;-60
2023/05/29 10:57:35;;;;;;;4.97;2.30;;;19.80;46.30;;;;;;5056054;28;20508;-61
2023/05/29 11:00:13;;;;;;;7.23;2.30;;;19.70;46.10;;;;;;5055934;28;20508;-61
2023/05/29 11:02:41;;;;;;;4.33;2.03;;;19.60;46.10;;;;;;5055203;28;20436;-60
2023/05/29 11:05:26;;;;;;;5.63;2.23;;;19.60;46.30;;;;;;5055163;28;20454;-60
2023/05/29 11:07:56;;;;;;;6.50;2.80;;;19.60;46.50;;;;;;5055302;28;20463;-59
2023/05/29 11:10:44;;;;;;;7.70;2.93;;;19.70;46.40;;;;;;5054871;28;20442;-60
2023/05/29 11:13:12;;;;;;;4.93;2.40;;;19.90;46.40;;;;;;5055054;28;20473;-60
2023/05/29 11:15:39;;;;;;;7.33;2.90;;;20.10;46.30;;;;;;5054697;28;20477;-60
2023/05/29 11:18:09;;;;;;;6.03;2.30;;;20.30;46.00;;;;;;5054668;28;20444;-61
2023/05/29 11:20:46;;;;;;;7.80;2.90;;;20.20;45.60;;;;;;5054590;28;20508;-61
2023/05/29 11:23:17;;;;;;;6.87;2.03;;;20.00;45.50;;;;;;5054253;28;20436;-59
2023/05/29 11:25:46;;;;;;;6.30;2.30;;;20.00;45.70;;;;;;5054108;28;20908;-59
2023/05/29 11:28:14;;;;;;;5.57;2.73;;;20.00;45.70;;;;;;5053441;28;20894;-59
2023/05/29 11:30:45;;;;;;;5.23;2.77;;;20.00;45.60;;;;;;5053692;28;20439;-59
2023/05/29 11:33:21;;;;;;;6.80;2.63;;;20.00;45.50;;;;;;5053504;28;20471;-59
2023/05/29 11:35:51;;;;;;;7.57;2.90;;;19.90;45.50;;;;;;5053994;28;20439;-59
2023/05/29 11:38:18;;;;;;;7.70;3.47;;;19.90;45.60;;;;;;5055043;28;20450;-57
2023/05/29 11:40:46;;;;;;;4.50;2.50;;;20.00;45.60;;;;;;5056000;28;20463;-61
2023/05/29 11:43:14;;;;;;;7.60;1.87;;;20.00;46.00;;;;;;5058337;28;20442;-60
2023/05/29 11:45:40;;;;;;;6.60;2.40;;;20.20;45.10;;;;;;5059590;28;20942;-60
2023/05/29 11:48:07;;;;;;;5.67;2.20;;;20.20;45.00;;;;;;5057858;28;20454;-59
2023/05/29 11:50:34;;;;;;;4.40;2.27;;;20.40;45.00;;;;;;5057567;28;20463;-61
2023/05/29 11:53:01;;;;;;;6.60;2.70;;;20.80;44.70;;;;;;5055429;28;20499;-60
2023/05/29 11:55:28;;;;;;;6.90;2.37;;;21.10;44.20;;;;;;5056244;28;20532;-58
2023/05/29 11:58:00;;;;;;;8.23;3.53;;;21.40;43.60;;;;;;5053750;28;20991;-61
2023/05/29 12:00:30;;;;;;;2.67;2.40;;;21.80;42.90;;;;;;5054409;28;20910;-60
2023/05/29 12:03:03;;;;;;;8.00;2.90;;;22.40;42.30;;;;;;5054677;28;20724;-60
2023/05/29 12:05:30;;;;;;;7.50;3.07;;;22.90;41.40;;;;;;5053642;28;20983;-59
2023/05/29 12:07:57;;;;;;;4.53;2.50;;;23.00;40.90;;;;;;5054139;28;20543;-60
2023/05/29 12:10:25;;;;;;;6.00;2.20;;;23.00;40.90;;;;;;5054444;28;20450;-59
2023/05/29 12:12:53;;;;;;;6.60;2.70;;;22.90;40.60;;;;;;5053767;28;20506;-58
2023/05/29 12:15:22;;;;;;;6.70;2.93;;;22.80;40.50;;;;;;5054309;28;20535;-60
2023/05/29 12:17:50;;;;;;;3.80;2.30;;;22.80;40.70;;;;;;5054468;28;20471;-61
2023/05/29 12:20:18;;;;;;;6.73;3.00;;;22.80;40.60;;;;;;5054296;28;20552;-60
2023/05/29 12:22:45;;;;;;;5.90;2.60;;;23.00;40.50;;;;;;5054084;28;20441;-59
2023/05/29 12:25:13;;;;;;;7.30;3.00;;;23.30;39.90;;;;;;5054212;28;20492;-59
2023/05/29 12:27:42;;;;;;;12.43;2.87;;;23.50;39.60;;;;;;5053317;28;20863;-60
2023/05/29 12:30:11;;;;;;;5.13;2.70;;;23.60;39.30;;;;;;5053930;28;20449;-61
2023/05/29 12:32:40;;;;;;;7.03;3.00;;;23.60;39.20;;;;;;5055856;28;20576;-61
2023/05/29 12:35:18;;;;;;;5.70;2.53;;;23.50;39.10;;;;;;5058781;28;20580;-60
2023/05/29 12:37:49;;;;;;;6.63;2.83;;;23.40;38.90;;;;;;5058320;28;20470;-60
2023/05/29 12:40:20;;;;;;;6.77;3.53;;;22.90;39.10;;;;;;5060368;28;20504;-60
2023/05/29 12:42:48;;;;;;;6.73;3.00;;;22.40;39.70;;;;;;5058252;28;20931;-59
2023/05/29 12:45:15;;;;;;;4.00;2.03;;;22.00;40.30;;;;;;5058245;28;20523;-59
2023/05/29 12:47:54;;;;;;;8.30;2.53;;;21.70;40.80;;;;;;5057743;28;20476;-59
2023/05/29 12:50:23;;;;;;;6.67;2.50;;;21.50;41.00;;;;;;5057854;28;20527;-61
2023/05/29 12:52:58;;;;;;;5.40;2.20;;;21.40;41.30;;;;;;5057509;28;20484;-61